createdAt,value
2022-08-26T00:04:20.530Z,10.40
2022-08-26T00:09:26.329Z,10.65
2022-08-26T00:14:30.970Z,10.82
2022-08-26T00:19:34.634Z,10.13
2022-08-26T00:24:39.297Z,10.80
2022-08-26T00:29:42.234Z,11.07
2022-08-26T00:34:45.074Z,11.30
2022-08-26T00:39:49.324Z,10.30
2022-08-26T00:44:52.568Z,11.90
2022-08-26T00:49:56.658Z,12.13
2022-08-26T00:55:07.954Z,13.03
2022-08-26T01:00:15.363Z,12.63
2022-08-26T01:05:19.905Z,13.52
2022-08-26T01:10:28.713Z,13.13
2022-08-26T01:15:35.589Z,13.63
2022-08-26T01:20:47.252Z,14.10
2022-08-26T01:26:00.690Z,14.23
2022-08-26T01:31:06.741Z,14.03
2022-08-26T01:36:10.308Z,15.32
2022-08-26T01:41:19.992Z,15.20
2022-08-26T01:46:31.709Z,14.40
2022-08-26T01:51:37.091Z,15.85
2022-08-26T01:56:42.159Z,15.60
2022-08-26T02:01:45.085Z,15.07
2022-08-26T02:06:49.504Z,17.13
2022-08-26T02:11:54.061Z,16.48
2022-08-26T02:16:57.855Z,16.00
2022-08-26T02:22:04.530Z,17.33
2022-08-26T02:27:08.720Z,16.80
2022-08-26T02:32:13.725Z,16.92
2022-08-26T02:37:23.065Z,17.27
2022-08-26T02:42:27.330Z,18.02
2022-08-26T02:47:30.131Z,18.15
2022-08-26T02:52:36.000Z,18.37
2022-08-26T02:57:41.766Z,18.20
2022-08-26T03:02:45.007Z,18.77
2022-08-26T03:07:48.086Z,19.27
2022-08-26T03:12:52.588Z,19.40
2022-08-26T03:17:57.191Z,20.55
2022-08-26T03:23:00.041Z,20.88
2022-08-26T03:28:04.580Z,19.50
2022-08-26T03:33:08.596Z,19.27
2022-08-26T03:38:12.903Z,20.48
2022-08-26T03:43:18.006Z,19.90
2022-08-26T03:48:20.965Z,19.60
2022-08-26T03:53:24.153Z,19.70
2022-08-26T03:58:28.296Z,20.08
2022-08-26T04:03:49.474Z,20.73
2022-08-26T04:08:52.311Z,19.55
2022-08-26T04:13:56.462Z,19.50
2022-08-26T04:19:00.113Z,18.63
2022-08-26T04:24:04.295Z,18.13
2022-08-26T04:29:12.578Z,18.45
2022-08-26T04:34:15.467Z,17.97
2022-08-26T04:39:20.622Z,18.17
2022-08-26T04:44:27.439Z,18.02
2022-08-26T04:49:35.275Z,18.58
2022-08-26T04:54:38.566Z,18.20
2022-08-26T04:59:46.240Z,17.55
2022-08-26T05:04:52.418Z,17.45
2022-08-26T05:09:55.329Z,17.63
2022-08-26T05:14:59.886Z,17.63
2022-08-26T05:20:02.878Z,18.23
2022-08-26T05:25:07.614Z,18.30
2022-08-26T05:30:12.950Z,17.97
2022-08-26T05:35:15.751Z,18.98
2022-08-26T05:40:18.975Z,17.52
2022-08-26T05:45:26.960Z,17.40
2022-08-26T05:50:29.822Z,16.20
2022-08-26T05:55:33.225Z,16.40
2022-08-26T06:00:38.541Z,16.03
2022-08-26T06:05:44.390Z,17.23
2022-08-26T06:10:48.306Z,18.02
2022-08-26T06:15:53.151Z,17.57
2022-08-26T06:20:57.959Z,16.80
2022-08-26T06:26:01.606Z,16.92
2022-08-26T06:31:07.068Z,17.52
2022-08-26T06:36:17.194Z,17.83
2022-08-26T06:41:23.211Z,16.88
2022-08-26T06:46:28.270Z,16.48
2022-08-26T06:51:34.584Z,17.03
2022-08-26T06:56:40.158Z,17.10
2022-08-26T07:01:45.651Z,18.13
2022-08-26T07:06:50.205Z,18.07
2022-08-26T07:11:56.498Z,17.20
2022-08-26T07:17:01.371Z,17.30
2022-08-26T07:22:06.813Z,15.98
2022-08-26T07:27:13.918Z,15.93
2022-08-26T07:32:21.023Z,16.23
2022-08-26T07:37:25.835Z,16.63
2022-08-26T07:42:28.942Z,16.37
2022-08-26T07:47:33.109Z,16.85
2022-08-26T07:52:37.611Z,16.50
2022-08-26T07:57:41.779Z,16.13
2022-08-26T08:02:46.952Z,15.77
2022-08-26T08:07:53.412Z,16.10
2022-08-26T08:12:57.549Z,16.15
2022-08-26T08:18:04.125Z,15.93
2022-08-26T08:23:07.120Z,16.58
2022-08-26T08:28:10.787Z,15.35
2022-08-26T08:33:15.032Z,15.20
2022-08-26T08:38:17.837Z,15.75
2022-08-26T08:43:32.023Z,15.43
2022-08-26T08:48:44.786Z,15.33
2022-08-26T08:53:54.673Z,15.20
2022-08-26T08:59:05.228Z,14.60
2022-08-26T09:04:26.067Z,14.40
2022-08-26T09:09:35.499Z,13.70
2022-08-26T09:14:38.507Z,13.82
2022-08-26T09:19:50.015Z,13.70
2022-08-26T09:24:52.809Z,13.30
2022-08-26T09:30:00.800Z,12.90
2022-08-26T09:35:08.550Z,12.93
2022-08-26T09:40:19.351Z,12.50
2022-08-26T09:45:28.969Z,12.73
2022-08-26T09:50:37.102Z,12.82
2022-08-26T09:55:43.802Z,11.85
2022-08-26T10:00:56.080Z,12.53
2022-08-26T10:06:02.099Z,11.65
2022-08-26T10:11:12.575Z,12.10
2022-08-26T10:16:20.360Z,11.50
2022-08-26T10:21:30.136Z,11.45
2022-08-26T10:26:42.321Z,11.73
2022-08-26T10:31:51.436Z,11.40
2022-08-26T10:37:13.975Z,12.47
2022-08-26T10:42:25.413Z,11.43
2022-08-26T10:47:38.331Z,11.73
2022-08-26T10:52:58.503Z,11.87
2022-08-26T10:58:12.365Z,11.98
2022-08-26T11:03:40.119Z,12.57
2022-08-26T11:08:48.879Z,12.70
2022-08-26T11:14:06.114Z,12.40
2022-08-26T11:19:12.915Z,12.05
2022-08-26T11:25:00.141Z,12.13
2022-08-26T11:30:07.766Z,13.00
2022-08-26T11:35:13.183Z,12.70
2022-08-26T11:40:19.251Z,11.90
2022-08-26T11:45:28.475Z,12.03
2022-08-26T11:50:32.348Z,12.00
2022-08-26T11:55:42.825Z,12.15
2022-08-26T12:00:55.418Z,11.87
2022-08-26T12:05:59.019Z,12.48
2022-08-26T12:11:06.921Z,13.02
2022-08-26T12:16:11.176Z,12.47
2022-08-26T12:21:20.253Z,12.70
2022-08-26T12:26:33.343Z,12.10
2022-08-26T12:31:39.795Z,11.80
2022-08-26T12:36:47.117Z,11.70
2022-08-26T12:41:52.611Z,11.70
2022-08-26T12:47:03.322Z,11.82
2022-08-26T12:52:07.901Z,13.00
2022-08-26T12:57:11.936Z,12.05
2022-08-26T13:02:37.469Z,12.57
2022-08-26T13:07:40.983Z,11.80
2022-08-26T13:12:43.788Z,12.30
2022-08-26T13:17:47.952Z,13.30
2022-08-26T13:22:58.497Z,11.57
2022-08-26T13:28:01.707Z,10.23
2022-08-26T13:33:06.060Z,12.00
2022-08-26T13:38:14.768Z,8.77
2022-08-26T13:43:35.875Z,8.50
2022-08-26T13:48:43.303Z,7.30
2022-08-26T13:53:47.663Z,6.53
2022-08-26T13:58:50.869Z,10.17
2022-08-26T14:03:55.291Z,11.50
2022-08-26T14:08:58.618Z,10.68
2022-08-26T14:14:01.423Z,11.52
2022-08-26T14:19:06.817Z,7.87
2022-08-26T14:24:09.621Z,8.40
2022-08-26T14:29:14.708Z,7.75
2022-08-26T14:34:21.082Z,5.07
2022-08-26T14:39:24.003Z,5.10
2022-08-26T14:44:30.475Z,5.28
2022-08-26T14:49:34.737Z,6.30
2022-08-26T14:54:37.787Z,7.07
2022-08-26T14:59:42.618Z,6.85
2022-08-26T15:04:50.494Z,6.30
2022-08-26T15:09:53.256Z,6.83
2022-08-26T15:14:56.035Z,6.88
2022-08-26T15:20:01.157Z,6.03
2022-08-26T15:25:04.399Z,5.00
2022-08-26T15:30:10.688Z,5.70
2022-08-26T15:35:14.851Z,6.60
2022-08-26T15:40:18.509Z,7.50
2022-08-26T15:45:26.333Z,8.07
2022-08-26T15:50:30.814Z,8.88
2022-08-26T15:55:33.709Z,8.45
2022-08-26T16:00:37.683Z,8.40
2022-08-26T16:05:43.996Z,7.93
2022-08-26T16:10:50.626Z,8.70
2022-08-26T16:15:53.715Z,8.80
2022-08-26T16:21:12.719Z,9.90
2022-08-26T16:26:19.085Z,9.55
2022-08-26T16:31:22.609Z,11.30
2022-08-26T16:36:27.301Z,10.10
2022-08-26T16:41:32.046Z,9.40
2022-08-26T16:46:36.285Z,9.45
2022-08-26T16:51:40.717Z,9.80
2022-08-26T16:56:43.607Z,9.95
2022-08-26T17:01:46.426Z,10.77
2022-08-26T17:06:51.126Z,11.50
2022-08-26T17:11:54.525Z,11.88
2022-08-26T17:16:57.398Z,11.60
2022-08-26T17:22:01.784Z,13.60
2022-08-26T17:27:08.549Z,13.30
2022-08-26T17:32:11.531Z,14.02
2022-08-26T17:37:16.724Z,13.13
2022-08-26T17:42:19.591Z,13.57
2022-08-26T17:47:22.404Z,14.02
2022-08-26T17:52:26.617Z,14.35
2022-08-26T17:57:30.489Z,14.27
2022-08-26T18:02:33.592Z,13.15
2022-08-26T18:07:44.015Z,13.85
2022-08-26T18:12:47.616Z,13.93
2022-08-26T18:17:50.689Z,14.73
2022-08-26T18:22:55.370Z,14.82
2022-08-26T18:27:58.196Z,15.50
2022-08-26T18:33:01.472Z,14.83
2022-08-26T18:38:10.594Z,15.15
2022-08-26T18:43:13.755Z,14.45
2022-08-26T18:48:16.727Z,14.50
2022-08-26T18:53:21.240Z,15.25
2022-08-26T18:58:24.257Z,14.48
2022-08-26T19:03:28.655Z,14.80
2022-08-26T19:08:32.863Z,14.17
2022-08-26T19:13:37.456Z,14.63
2022-08-26T19:18:40.379Z,14.13
2022-08-26T19:23:44.596Z,14.73
2022-08-26T19:28:49.509Z,14.73
2022-08-26T19:33:52.489Z,13.85
2022-08-26T19:38:57.312Z,15.07
2022-08-26T19:44:01.753Z,15.23
2022-08-26T19:49:07.204Z,14.45
2022-08-26T19:54:11.331Z,15.13
2022-08-26T19:59:14.201Z,15.43
2022-08-26T20:04:17.126Z,15.40
2022-08-26T20:09:21.287Z,14.93
2022-08-26T20:14:24.104Z,15.70
2022-08-26T20:19:44.325Z,15.15
2022-08-26T20:24:49.525Z,14.45
2022-08-26T20:29:52.363Z,14.17
2022-08-26T20:34:55.585Z,14.27
2022-08-26T20:40:02.093Z,14.52
2022-08-26T20:45:06.172Z,13.87
2022-08-26T20:50:09.796Z,13.30
2022-08-26T20:55:14.075Z,14.93
2022-08-26T21:00:22.346Z,14.32
2022-08-26T21:05:29.233Z,13.37
2022-08-26T21:10:33.600Z,14.13
2022-08-26T21:15:36.818Z,13.30
2022-08-26T21:20:39.685Z,13.53
2022-08-26T21:25:43.890Z,13.48
2022-08-26T21:30:46.691Z,14.27
2022-08-26T21:35:52.710Z,15.10
2022-08-26T21:41:02.877Z,14.10
2022-08-26T21:46:11.486Z,13.70
2022-08-26T21:51:16.363Z,13.57
2022-08-26T21:56:22.323Z,13.57
2022-08-26T22:01:26.849Z,14.90
2022-08-26T22:06:29.895Z,14.50
2022-08-26T22:11:34.157Z,13.70
2022-08-26T22:16:37.172Z,13.77
2022-08-26T22:21:40.128Z,14.00
2022-08-26T22:26:44.857Z,13.67
2022-08-26T22:31:47.871Z,13.37
2022-08-26T22:36:51.143Z,12.88
2022-08-26T22:41:56.859Z,12.60
2022-08-26T22:47:01.124Z,12.37
2022-08-26T22:52:04.609Z,11.88
2022-08-26T22:57:09.180Z,11.40
2022-08-26T23:02:12.931Z,10.90
2022-08-26T23:07:16.149Z,10.75
2022-08-26T23:12:20.337Z,11.38
2022-08-26T23:17:23.146Z,10.87
2022-08-26T23:22:26.078Z,11.17
2022-08-26T23:27:30.624Z,9.07
2022-08-26T23:32:33.672Z,9.38
2022-08-26T23:37:39.653Z,8.73
2022-08-26T23:42:45.308Z,9.43
2022-08-26T23:47:50.501Z,10.27
2022-08-26T23:53:08.977Z,10.37
2022-08-26T23:58:13.165Z,10.32
